Time;durP1;ratioP1;P1;durP2;ratioP2;P2;SDS_P1;SDS_P2;PMS_P1;PMS_P2;Temp;Humidity;BMP_temperature;BMP_pressure;BME280_temperature;BME280_humidity;BME280_pressure;Samples;Min_cycle;Max_cycle;Signal;HPM_P1;HPM_P2
2023/08/14 00:09:54;;;;;;;5.60;3.20;;;29.50;19.50;;;;;;20995718;28;20048;-58
2023/08/14 00:19:55;;;;;;;6.88;3.40;;;29.40;19.90;;;;;;20995529;28;20093;-59
2023/08/14 00:29:56;;;;;;;4.45;2.95;;;29.30;19.80;;;;;;20995118;28;20060;-57
2023/08/14 00:39:57;;;;;;;6.32;2.97;;;29.30;19.90;;;;;;20994038;28;20075;-57
2023/08/14 00:49:58;;;;;;;5.57;3.30;;;29.10;20.30;;;;;;21007669;28;20048;-58
2023/08/14 01:00:00;;;;;;;5.78;2.90;;;28.90;20.50;;;;;;21010089;28;20044;-58
2023/08/14 01:10:02;;;;;;;4.63;2.78;;;28.90;20.60;;;;;;21008915;28;20041;-58
2023/08/14 01:20:04;;;;;;;5.68;3.33;;;28.70;20.60;;;;;;21006038;28;20037;-57
2023/08/14 01:30:05;;;;;;;5.15;2.92;;;28.60;21.30;;;;;;21006425;28;20542;-57
2023/08/14 01:40:15;;;;;;;4.80;2.67;;;28.40;21.90;;;;;;21006423;28;20052;-57
2023/08/14 01:50:18;;;;;;;6.20;2.95;;;28.40;22.40;;;;;;21006000;28;20407;-57
2023/08/14 02:00:19;;;;;;;3.95;2.78;;;28.30;22.50;;;;;;21003655;28;20481;-56
2023/08/14 02:10:21;;;;;;;4.40;3.03;;;28.20;22.70;;;;;;21004467;28;20423;-56
2023/08/14 02:20:22;;;;;;;7.05;3.22;;;28.10;23.00;;;;;;21002138;28;20036;-58
2023/08/14 02:30:23;;;;;;;6.15;2.70;;;28.00;23.00;;;;;;21001697;28;20049;-59
2023/08/14 02:40:23;;;;;;;;;;;27.90;23.20;;;;;;21002910;28;20044;-57
2023/08/14 02:50:24;;;;;;;4.05;2.78;;;27.90;23.20;;;;;;21001242;28;19965;-58
2023/08/14 03:00:25;;;;;;;5.07;3.55;;;27.80;23.50;;;;;;21000756;28;20044;-58
2023/08/14 03:10:26;;;;;;;5.30;3.00;;;27.90;24.00;;;;;;20999470;28;20041;-58
2023/08/14 03:20:26;;;;;;;6.93;3.00;;;27.80;24.60;;;;;;20998955;28;20293;-58
2023/08/14 03:30:27;;;;;;;6.03;3.50;;;27.90;24.30;;;;;;20996753;28;20052;-58
2023/08/14 03:40:30;;;;;;;3.93;2.83;;;27.80;24.40;;;;;;20996103;28;20131;-58
2023/08/14 03:50:30;;;;;;;9.63;4.22;;;27.70;25.10;;;;;;20997137;28;20666;-58
2023/08/14 04:00:31;;;;;;;4.60;3.10;;;27.60;25.10;;;;;;20996121;28;20086;-57
2023/08/14 04:10:32;;;;;;;9.33;3.20;;;27.60;25.50;;;;;;20996383;28;20041;-57
2023/08/14 04:20:33;;;;;;;9.03;5.77;;;27.50;25.60;;;;;;21001536;28;20091;-57
2023/08/14 04:30:33;;;;;;;7.80;3.30;;;27.30;25.10;;;;;;21011613;28;20473;-57
2023/08/14 04:40:34;;;;;;;6.80;4.00;;;27.20;25.20;;;;;;21011619;28;20048;-57
2023/08/14 04:50:35;;;;;;;5.37;3.13;;;26.70;26.50;;;;;;21010932;28;20119;-58
2023/08/14 05:00:36;;;;;;;8.37;3.73;;;26.20;27.00;;;;;;21010297;28;20041;-58
2023/08/14 05:10:37;;;;;;;6.07;3.63;;;26.00;27.70;;;;;;21009640;28;20554;-58
2023/08/14 05:20:38;;;;;;;6.80;3.60;;;25.70;28.20;;;;;;21008253;28;20131;-60
2023/08/14 05:30:44;;;;;;;5.67;3.43;;;25.40;29.00;;;;;;21006632;28;20517;-57
2023/08/14 05:40:45;;;;;;;9.25;3.67;;;25.30;29.20;;;;;;21006849;28;20056;-57
2023/08/14 05:50:46;;;;;;;7.97;4.17;;;25.10;29.70;;;;;;21005850;28;20098;-57
2023/08/14 06:00:47;;;;;;;6.40;3.07;;;25.00;30.20;;;;;;21005354;28;20047;-58
2023/08/14 06:10:48;;;;;;;9.47;3.70;;;25.50;33.50;;;;;;21004687;28;20568;-58
2023/08/14 06:20:51;;;;;;;10.30;3.97;;;25.70;34.50;;;;;;21002417;28;20530;-58
2023/08/14 06:30:52;;;;;;;13.65;4.75;;;25.70;35.40;;;;;;21001852;28;20052;-57
2023/08/14 06:40:52;;;;;;;8.07;3.90;;;25.90;37.10;;;;;;21001068;28;20080;-56
2023/08/14 06:50:55;;;;;;;12.10;4.40;;;25.90;38.90;;;;;;21000872;28;20086;-59
2023/08/14 07:00:56;;;;;;;10.85;4.13;;;26.50;38.70;;;;;;20999722;28;20539;-58
2023/08/14 07:10:58;;;;;;;11.35;3.85;;;26.80;38.90;;;;;;20997498;28;20050;-58
2023/08/14 07:20:58;;;;;;;7.97;3.58;;;27.10;37.00;;;;;;20998294;28;20048;-57
2023/08/14 07:30:59;;;;;;;7.90;3.43;;;27.50;34.70;;;;;;20996423;28;20109;-57
2023/08/14 07:41:00;;;;;;;7.10;3.60;;;28.00;33.60;;;;;;20997179;28;20506;-58
2023/08/14 07:51:01;;;;;;;5.63;2.92;;;28.30;33.30;;;;;;20996919;28;20044;-57
2023/08/14 08:01:01;;;;;;;;;;;28.70;31.60;;;;;;20996676;28;20044;-57
2023/08/14 08:11:02;;;;;;;10.20;3.38;;;29.10;31.30;;;;;;20996450;28;19928;-56
2023/08/14 08:21:03;;;;;;;7.43;3.50;;;29.20;30.60;;;;;;20995711;28;20036;-57
2023/08/14 08:31:04;;;;;;;9.85;3.40;;;29.60;29.40;;;;;;20994640;28;20053;-58
2023/08/14 08:41:06;;;;;;;13.98;9.68;;;29.80;29.30;;;;;;20993630;28;20440;-57
2023/08/14 08:51:07;;;;;;;10.30;3.42;;;30.00;29.60;;;;;;20993021;28;20045;-56
2023/08/14 09:01:09;;;;;;;8.52;3.38;;;30.20;29.10;;;;;;20993874;28;20080;-57
2023/08/14 09:11:10;;;;;;;4.43;2.67;;;30.30;29.40;;;;;;21006954;28;20119;-57
2023/08/14 09:21:15;;;;;;;7.85;3.22;;;30.60;28.40;;;;;;21008082;28;20082;-58
2023/08/14 09:31:16;;;;;;;6.38;2.72;;;30.80;27.40;;;;;;21006544;28;20514;-57
2023/08/14 09:41:19;;;;;;;7.53;2.75;;;30.90;27.30;;;;;;21005165;28;20045;-58
2023/08/14 09:51:20;;;;;;;4.55;2.50;;;31.10;26.30;;;;;;21005895;28;20421;-58
2023/08/14 10:01:22;;;;;;;7.07;2.95;;;31.40;26.30;;;;;;21003844;28;20150;-57
2023/08/14 10:11:26;;;;;;;8.13;2.58;;;31.60;25.40;;;;;;21004378;28;20119;-58
2023/08/14 10:21:32;;;;;;;5.03;2.50;;;31.80;26.00;;;;;;21000917;28;20132;-58
2023/08/14 10:31:33;;;;;;;5.28;2.45;;;31.80;25.10;;;;;;21003049;28;20049;-57
2023/08/14 10:41:35;;;;;;;6.63;2.53;;;32.10;24.50;;;;;;21001716;28;20051;-57
2023/08/14 10:51:40;;;;;;;4.75;1.92;;;32.10;24.80;;;;;;21001645;28;20040;-58
2023/08/14 11:01:41;;;;;;;4.68;2.33;;;32.40;23.40;;;;;;20999989;28;20079;-57
2023/08/14 11:11:49;;;;;;;3.95;2.30;;;32.60;22.40;;;;;;20999080;28;20128;-58
2023/08/14 11:21:49;;;;;;;5.05;2.20;;;32.70;22.70;;;;;;20997343;28;20076;-57
2023/08/14 11:31:51;;;;;;;7.95;2.10;;;32.70;23.00;;;;;;20996666;28;20052;-58
2023/08/14 11:41:52;;;;;;;4.07;1.80;;;33.10;21.60;;;;;;20997699;28;20067;-57
2023/08/14 11:51:54;;;;;;;5.43;2.22;;;33.10;20.90;;;;;;20996534;28;20115;-57
2023/08/14 12:01:56;;;;;;;4.32;2.10;;;33.30;21.80;;;;;;20995828;28;20120;-59
2023/08/14 12:11:57;;;;;;;6.00;2.70;;;33.20;22.30;;;;;;20995372;28;20072;-58
2023/08/14 12:22:00;;;;;;;5.32;2.30;;;33.30;20.90;;;;;;20995002;28;20121;-57
2023/08/14 12:32:02;;;;;;;5.55;2.03;;;33.50;21.00;;;;;;20995281;28;20509;-57
2023/08/14 12:42:03;;;;;;;8.63;2.83;;;33.50;20.40;;;;;;21001690;28;20090;-58
2023/08/14 12:52:04;;;;;;;6.05;2.47;;;33.70;20.30;;;;;;21010285;28;20080;-57
2023/08/14 13:02:05;;;;;;;6.22;2.53;;;33.80;20.10;;;;;;21008770;28;20375;-57
2023/08/14 13:12:06;;;;;;;4.57;2.58;;;33.90;19.70;;;;;;21006801;28;20036;-56
2023/08/14 13:22:06;;;;;;;6.65;2.83;;;34.30;19.10;;;;;;21006430;28;20044;-58
2023/08/14 13:32:07;;;;;;;10.23;8.00;;;34.30;19.70;;;;;;21005744;28;20056;-58
2023/08/14 13:42:08;;;;;;;7.10;2.55;;;34.50;20.20;;;;;;21005151;28;20501;-57
2023/08/14 13:52:09;;;;;;;7.57;2.65;;;34.50;18.90;;;;;;21005802;28;20040;-57
2023/08/14 14:02:10;;;;;;;8.40;2.78;;;34.60;18.70;;;;;;21004662;28;20409;-57
2023/08/14 14:12:11;;;;;;;6.05;3.00;;;34.60;19.00;;;;;;21003229;28;20056;-58
2023/08/14 14:22:12;;;;;;;5.13;2.27;;;34.80;19.10;;;;;;21003793;28;20044;-58
2023/08/14 14:32:13;;;;;;;4.72;2.45;;;34.60;18.80;;;;;;21002291;28;20299;-58
2023/08/14 14:42:13;;;;;;;5.30;3.30;;;34.70;19.10;;;;;;21001765;28;20110;-57
2023/08/14 14:52:14;;;;;;;5.32;2.47;;;34.70;18.90;;;;;;21001178;28;20090;-57
2023/08/14 15:02:15;;;;;;;3.70;2.00;;;35.00;18.10;;;;;;20999723;28;20120;-58
2023/08/14 15:12:16;;;;;;;5.53;2.03;;;35.00;17.90;;;;;;20999685;28;20068;-58
2023/08/14 15:22:16;;;;;;;7.18;3.10;;;35.10;17.40;;;;;;20997948;28;20094;-58
2023/08/14 15:32:17;;;;;;;5.18;2.08;;;34.90;17.80;;;;;;20996617;28;20493;-57
2023/08/14 15:42:18;;;;;;;8.98;5.60;;;34.80;17.70;;;;;;20997386;28;20071;-57
2023/08/14 15:52:20;;;;;;;11.50;6.40;;;34.70;18.10;;;;;;20997189;28;20048;-57
2023/08/14 16:02:21;;;;;;;7.70;5.05;;;34.60;18.00;;;;;;20995265;28;20056;-57
2023/08/14 16:12:22;;;;;;;7.05;2.80;;;34.80;17.90;;;;;;20995352;28;20041;-58
2023/08/14 16:22:22;;;;;;;4.88;2.58;;;34.70;17.70;;;;;;20995785;28;20041;-59
2023/08/14 16:32:23;;;;;;;5.47;3.60;;;34.80;17.40;;;;;;20994331;28;20064;-57
2023/08/14 16:42:24;;;;;;;4.50;2.13;;;34.80;17.00;;;;;;20993693;28;20603;-57
2023/08/14 16:52:25;;;;;;;25.05;6.72;;;35.10;16.60;;;;;;20994365;28;20045;-57
2023/08/14 17:02:25;;;;;;;3.60;1.80;;;34.70;17.20;;;;;;20993950;28;20045;-58
2023/08/14 17:12:27;;;;;;;4.60;2.88;;;34.70;16.30;;;;;;20992593;28;20078;-58
2023/08/14 17:22:27;;;;;;;3.93;2.40;;;34.60;16.50;;;;;;20993211;28;20046;-57
2023/08/14 17:32:29;;;;;;;3.33;2.17;;;34.80;15.50;;;;;;21004810;28;20293;-58
2023/08/14 17:42:29;;;;;;;5.45;2.45;;;34.70;14.70;;;;;;21005642;28;20051;-56
2023/08/14 17:52:31;;;;;;;4.80;2.25;;;34.60;14.60;;;;;;21006033;28;20072;-57
2023/08/14 18:02:31;;;;;;;4.15;2.60;;;34.60;15.10;;;;;;21005253;28;20098;-56
2023/08/14 18:12:32;;;;;;;5.30;3.10;;;34.50;15.00;;;;;;21004868;28;20040;-56
2023/08/14 18:22:33;;;;;;;4.47;2.28;;;34.30;14.50;;;;;;21004460;28;20041;-57
2023/08/14 18:32:34;;;;;;;4.43;2.20;;;33.90;14.60;;;;;;21001938;28;20052;-57
2023/08/14 18:42:34;;;;;;;3.80;2.38;;;33.80;14.30;;;;;;21000311;28;20084;-56
2023/08/14 18:52:35;;;;;;;6.00;3.38;;;33.40;14.50;;;;;;21001653;28;20076;-58
2023/08/14 19:02:36;;;;;;;13.90;6.95;;;33.10;14.60;;;;;;21000558;28;20048;-56
2023/08/14 19:12:37;;;;;;;7.63;3.90;;;33.00;15.20;;;;;;20999786;28;20401;-57
2023/08/14 19:22:38;;;;;;;4.78;3.20;;;32.70;15.30;;;;;;20999197;28;20037;-57
2023/08/14 19:32:39;;;;;;;6.93;3.50;;;32.60;15.50;;;;;;20997699;28;20062;-57
2023/08/14 19:42:41;;;;;;;5.22;3.50;;;32.50;15.80;;;;;;20997400;28;20405;-57
2023/08/14 19:52:42;;;;;;;10.10;4.10;;;32.10;16.00;;;;;;20995445;28;20055;-57
2023/08/14 20:02:43;;;;;;;4.15;3.30;;;32.10;16.10;;;;;;20996233;28;20474;-58
2023/08/14 20:12:44;;;;;;;5.32;3.45;;;32.00;16.30;;;;;;20995686;28;20066;-58
2023/08/14 20:22:44;;;;;;;4.35;3.47;;;31.80;16.50;;;;;;20995794;28;20088;-58
2023/08/14 20:32:45;;;;;;;4.80;3.58;;;31.80;16.40;;;;;;20994573;28;20084;-58
2023/08/14 20:42:46;;;;;;;6.18;3.40;;;31.50;16.50;;;;;;20993738;28;20131;-58
2023/08/14 20:52:47;;;;;;;6.22;3.45;;;31.50;16.60;;;;;;20994656;28;20045;-57
2023/08/14 21:02:47;;;;;;;6.20;3.60;;;31.30;16.90;;;;;;21001183;28;20040;-57
2023/08/14 21:12:48;;;;;;;7.82;3.05;;;31.30;18.00;;;;;;21010021;28;20362;-59
2023/08/14 21:22:49;;;;;;;6.78;4.05;;;31.20;17.20;;;;;;21009124;28;20097;-58
2023/08/14 21:32:49;;;;;;;6.65;5.22;;;31.00;17.50;;;;;;21007299;28;20146;-58
2023/08/14 21:42:50;;;;;;;6.28;4.63;;;31.00;17.80;;;;;;21007521;28;20088;-57
2023/08/14 21:52:51;;;;;;;5.95;4.10;;;31.00;18.50;;;;;;21006845;28;20047;-56
2023/08/14 22:02:52;;;;;;;8.35;4.28;;;30.80;18.90;;;;;;21004781;28;20127;-57
2023/08/14 22:12:52;;;;;;;6.65;4.43;;;30.60;19.10;;;;;;21005414;28;20516;-56
2023/08/14 22:22:53;;;;;;;5.68;3.90;;;30.60;19.80;;;;;;21004493;28;20044;-57
2023/08/14 22:32:55;;;;;;;7.63;3.70;;;30.40;19.90;;;;;;21002460;28;20063;-58
2023/08/14 22:42:56;;;;;;;5.70;3.45;;;30.30;19.80;;;;;;21002623;28;20047;-57
2023/08/14 22:52:57;;;;;;;11.15;7.53;;;30.10;20.10;;;;;;21002237;28;20068;-57
2023/08/14 23:02:57;;;;;;;8.10;4.68;;;29.90;20.70;;;;;;21001390;28;20041;-57
2023/08/14 23:12:58;;;;;;;7.00;4.50;;;29.60;21.00;;;;;;21000851;28;20080;-57
2023/08/14 23:22:59;;;;;;;5.28;3.13;;;29.60;21.50;;;;;;20999477;28;20079;-58
2023/08/14 23:33:00;;;;;;;11.10;4.05;;;29.50;21.00;;;;;;20998106;28;20064;-58
2023/08/14 23:43:01;;;;;;;3.85;2.97;;;29.20;21.80;;;;;;20997100;28;20128;-57
2023/08/14 23:53:01;;;;;;;4.85;3.25;;;29.20;21.60;;;;;;20998092;28;20374;-57
